sensor_id;sensor_type;location;lat;lon;timestamp;P1;durP1;ratioP1;P2;durP2;ratioP2
37409;SDS011;23275;48.914;12.566;2023-03-14T00:01:38;6.82;;;2.35;;
37409;SDS011;23275;48.914;12.566;2023-03-14T00:04:04;5.50;;;2.33;;
37409;SDS011;23275;48.914;12.566;2023-03-14T00:06:30;4.25;;;2.60;;
37409;SDS011;23275;48.914;12.566;2023-03-14T00:08:56;5.45;;;2.40;;
37409;SDS011;23275;48.914;12.566;2023-03-14T00:11:22;5.32;;;2.53;;
37409;SDS011;23275;48.914;12.566;2023-03-14T00:13:48;5.70;;;2.88;;
37409;SDS011;23275;48.914;12.566;2023-03-14T00:16:14;7.35;;;2.35;;
37409;SDS011;23275;48.914;12.566;2023-03-14T00:18:40;5.28;;;2.35;;
37409;SDS011;23275;48.914;12.566;2023-03-14T00:21:06;4.20;;;2.10;;
37409;SDS011;23275;48.914;12.566;2023-03-14T00:23:34;5.57;;;2.28;;
37409;SDS011;23275;48.914;12.566;2023-03-14T00:26:02;8.80;;;2.70;;
37409;SDS011;23275;48.914;12.566;2023-03-14T00:28:29;5.47;;;2.63;;
37409;SDS011;23275;48.914;12.566;2023-03-14T00:30:55;8.40;;;3.20;;
37409;SDS011;23275;48.914;12.566;2023-03-14T00:33:21;6.95;;;2.90;;
37409;SDS011;23275;48.914;12.566;2023-03-14T00:35:56;5.60;;;2.75;;
37409;SDS011;23275;48.914;12.566;2023-03-14T00:38:24;7.63;;;3.15;;
37409;SDS011;23275;48.914;12.566;2023-03-14T00:40:50;5.32;;;2.70;;
37409;SDS011;23275;48.914;12.566;2023-03-14T00:43:16;6.75;;;3.45;;
37409;SDS011;23275;48.914;12.566;2023-03-14T00:45:42;6.30;;;2.67;;
37409;SDS011;23275;48.914;12.566;2023-03-14T00:48:08;8.32;;;3.50;;
37409;SDS011;23275;48.914;12.566;2023-03-14T00:50:33;7.57;;;3.10;;
37409;SDS011;23275;48.914;12.566;2023-03-14T00:52:59;7.80;;;3.60;;
37409;SDS011;23275;48.914;12.566;2023-03-14T00:55:24;7.60;;;3.13;;
37409;SDS011;23275;48.914;12.566;2023-03-14T00:57:50;7.95;;;3.50;;
37409;SDS011;23275;48.914;12.566;2023-03-14T01:00:16;7.47;;;3.28;;
37409;SDS011;23275;48.914;12.566;2023-03-14T01:02:42;5.38;;;3.15;;
37409;SDS011;23275;48.914;12.566;2023-03-14T01:05:07;8.55;;;3.60;;
37409;SDS011;23275;48.914;12.566;2023-03-14T01:07:35;7.60;;;3.58;;
37409;SDS011;23275;48.914;12.566;2023-03-14T01:10:01;6.18;;;3.33;;
37409;SDS011;23275;48.914;12.566;2023-03-14T01:12:27;8.60;;;3.65;;
37409;SDS011;23275;48.914;12.566;2023-03-14T01:14:52;5.95;;;3.00;;
37409;SDS011;23275;48.914;12.566;2023-03-14T01:17:18;5.55;;;2.78;;
37409;SDS011;23275;48.914;12.566;2023-03-14T01:19:43;6.60;;;3.33;;
37409;SDS011;23275;48.914;12.566;2023-03-14T01:22:09;6.63;;;3.33;;
37409;SDS011;23275;48.914;12.566;2023-03-14T01:24:36;6.97;;;2.70;;
37409;SDS011;23275;48.914;12.566;2023-03-14T01:27:02;7.43;;;3.08;;
37409;SDS011;23275;48.914;12.566;2023-03-14T01:29:27;6.72;;;2.92;;
37409;SDS011;23275;48.914;12.566;2023-03-14T01:31:53;4.32;;;2.90;;
37409;SDS011;23275;48.914;12.566;2023-03-14T01:34:19;10.63;;;3.20;;
37409;SDS011;23275;48.914;12.566;2023-03-14T01:36:45;7.63;;;2.90;;
37409;SDS011;23275;48.914;12.566;2023-03-14T01:39:10;4.82;;;2.60;;
37409;SDS011;23275;48.914;12.566;2023-03-14T01:41:37;5.07;;;2.78;;
37409;SDS011;23275;48.914;12.566;2023-03-14T01:44:04;4.80;;;3.00;;
37409;SDS011;23275;48.914;12.566;2023-03-14T01:49:16;5.47;;;3.15;;
37409;SDS011;23275;48.914;12.566;2023-03-14T01:54:27;6.03;;;3.33;;
37409;SDS011;23275;48.914;12.566;2023-03-14T01:57:04;9.82;;;4.15;;
37409;SDS011;23275;48.914;12.566;2023-03-14T01:59:36;11.05;;;4.82;;
37409;SDS011;23275;48.914;12.566;2023-03-14T02:02:04;6.75;;;3.83;;
37409;SDS011;23275;48.914;12.566;2023-03-14T02:04:33;5.32;;;3.33;;
37409;SDS011;23275;48.914;12.566;2023-03-14T02:07:03;6.25;;;3.20;;
37409;SDS011;23275;48.914;12.566;2023-03-14T02:09:37;5.93;;;2.80;;
37409;SDS011;23275;48.914;12.566;2023-03-14T02:12:05;5.90;;;3.35;;
37409;SDS011;23275;48.914;12.566;2023-03-14T02:14:33;6.88;;;2.78;;
37409;SDS011;23275;48.914;12.566;2023-03-14T02:17:01;6.78;;;3.20;;
37409;SDS011;23275;48.914;12.566;2023-03-14T02:22:16;4.50;;;2.78;;
37409;SDS011;23275;48.914;12.566;2023-03-14T02:24:51;6.63;;;3.20;;
37409;SDS011;23275;48.914;12.566;2023-03-14T02:27:19;4.85;;;2.88;;
37409;SDS011;23275;48.914;12.566;2023-03-14T02:29:48;5.20;;;2.92;;
37409;SDS011;23275;48.914;12.566;2023-03-14T02:32:17;5.22;;;2.25;;
37409;SDS011;23275;48.914;12.566;2023-03-14T02:34:46;5.15;;;2.35;;
37409;SDS011;23275;48.914;12.566;2023-03-14T02:37:15;5.13;;;2.30;;
37409;SDS011;23275;48.914;12.566;2023-03-14T02:39:44;4.40;;;2.30;;
37409;SDS011;23275;48.914;12.566;2023-03-14T02:42:11;4.90;;;2.35;;
37409;SDS011;23275;48.914;12.566;2023-03-14T02:44:47;7.00;;;2.30;;
37409;SDS011;23275;48.914;12.566;2023-03-14T02:47:26;4.32;;;2.55;;
37409;SDS011;23275;48.914;12.566;2023-03-14T02:49:55;3.78;;;2.25;;
37409;SDS011;23275;48.914;12.566;2023-03-14T02:52:28;5.18;;;2.05;;
37409;SDS011;23275;48.914;12.566;2023-03-14T02:54:53;2.95;;;1.10;;
37409;SDS011;23275;48.914;12.566;2023-03-14T02:57:19;2.97;;;1.10;;
37409;SDS011;23275;48.914;12.566;2023-03-14T02:59:44;1.98;;;0.80;;
37409;SDS011;23275;48.914;12.566;2023-03-14T03:02:10;1.08;;;0.50;;
37409;SDS011;23275;48.914;12.566;2023-03-14T03:04:36;0.60;;;0.30;;
37409;SDS011;23275;48.914;12.566;2023-03-14T03:07:01;0.45;;;0.20;;
37409;SDS011;23275;48.914;12.566;2023-03-14T03:09:27;0.55;;;0.30;;
37409;SDS011;23275;48.914;12.566;2023-03-14T03:11:52;0.28;;;0.20;;
37409;SDS011;23275;48.914;12.566;2023-03-14T03:14:18;1.75;;;0.25;;
37409;SDS011;23275;48.914;12.566;2023-03-14T03:16:43;1.55;;;0.20;;
37409;SDS011;23275;48.914;12.566;2023-03-14T03:19:09;1.58;;;0.20;;
37409;SDS011;23275;48.914;12.566;2023-03-14T03:21:34;1.98;;;0.30;;
37409;SDS011;23275;48.914;12.566;2023-03-14T03:24:00;1.73;;;0.30;;
37409;SDS011;23275;48.914;12.566;2023-03-14T03:26:32;0.40;;;0.38;;
37409;SDS011;23275;48.914;12.566;2023-03-14T03:29:01;0.50;;;0.20;;
37409;SDS011;23275;48.914;12.566;2023-03-14T03:31:27;3.95;;;0.25;;
37409;SDS011;23275;48.914;12.566;2023-03-14T03:33:53;1.80;;;0.38;;
37409;SDS011;23275;48.914;12.566;2023-03-14T03:36:22;0.75;;;0.30;;
37409;SDS011;23275;48.914;12.566;2023-03-14T03:38:48;0.63;;;0.20;;
37409;SDS011;23275;48.914;12.566;2023-03-14T03:41:14;2.05;;;0.30;;
37409;SDS011;23275;48.914;12.566;2023-03-14T03:43:40;0.82;;;0.20;;
37409;SDS011;23275;48.914;12.566;2023-03-14T03:46:06;2.22;;;0.30;;
37409;SDS011;23275;48.914;12.566;2023-03-14T03:48:32;0.57;;;0.20;;
37409;SDS011;23275;48.914;12.566;2023-03-14T03:50:59;1.85;;;0.20;;
37409;SDS011;23275;48.914;12.566;2023-03-14T03:53:24;0.98;;;0.20;;
37409;SDS011;23275;48.914;12.566;2023-03-14T03:55:50;1.08;;;0.40;;
37409;SDS011;23275;48.914;12.566;2023-03-14T03:58:15;4.13;;;0.35;;
37409;SDS011;23275;48.914;12.566;2023-03-14T04:00:41;2.25;;;0.40;;
37409;SDS011;23275;48.914;12.566;2023-03-14T04:03:07;1.17;;;0.32;;
37409;SDS011;23275;48.914;12.566;2023-03-14T04:05:32;1.10;;;0.40;;
37409;SDS011;23275;48.914;12.566;2023-03-14T04:07:59;1.45;;;0.50;;
37409;SDS011;23275;48.914;12.566;2023-03-14T04:10:25;1.13;;;0.47;;
37409;SDS011;23275;48.914;12.566;2023-03-14T04:12:50;2.10;;;0.60;;
37409;SDS011;23275;48.914;12.566;2023-03-14T04:15:17;2.00;;;0.50;;
37409;SDS011;23275;48.914;12.566;2023-03-14T04:17:42;1.75;;;0.68;;
37409;SDS011;23275;48.914;12.566;2023-03-14T04:20:08;5.25;;;0.60;;
37409;SDS011;23275;48.914;12.566;2023-03-14T04:22:37;2.55;;;0.60;;
37409;SDS011;23275;48.914;12.566;2023-03-14T04:25:03;1.60;;;0.40;;
37409;SDS011;23275;48.914;12.566;2023-03-14T04:27:30;2.10;;;0.50;;
37409;SDS011;23275;48.914;12.566;2023-03-14T04:29:56;0.95;;;0.40;;
37409;SDS011;23275;48.914;12.566;2023-03-14T04:32:22;0.63;;;0.30;;
37409;SDS011;23275;48.914;12.566;2023-03-14T04:34:47;1.42;;;0.50;;
37409;SDS011;23275;48.914;12.566;2023-03-14T04:37:13;1.42;;;0.50;;
37409;SDS011;23275;48.914;12.566;2023-03-14T04:39:38;3.83;;;0.57;;
37409;SDS011;23275;48.914;12.566;2023-03-14T04:42:04;1.60;;;0.50;;
37409;SDS011;23275;48.914;12.566;2023-03-14T04:44:29;0.77;;;0.40;;
37409;SDS011;23275;48.914;12.566;2023-03-14T04:46:55;0.85;;;0.40;;
37409;SDS011;23275;48.914;12.566;2023-03-14T04:49:20;1.02;;;0.45;;
37409;SDS011;23275;48.914;12.566;2023-03-14T04:51:46;2.60;;;0.40;;
37409;SDS011;23275;48.914;12.566;2023-03-14T04:54:12;2.08;;;0.45;;
37409;SDS011;23275;48.914;12.566;2023-03-14T04:56:38;1.48;;;0.50;;
37409;SDS011;23275;48.914;12.566;2023-03-14T04:59:03;2.95;;;1.02;;
37409;SDS011;23275;48.914;12.566;2023-03-14T05:01:29;1.63;;;0.90;;
37409;SDS011;23275;48.914;12.566;2023-03-14T05:03:55;4.40;;;1.33;;
37409;SDS011;23275;48.914;12.566;2023-03-14T05:06:21;2.42;;;1.02;;
37409;SDS011;23275;48.914;12.566;2023-03-14T05:08:46;2.75;;;0.90;;
37409;SDS011;23275;48.914;12.566;2023-03-14T05:11:12;2.42;;;0.90;;
37409;SDS011;23275;48.914;12.566;2023-03-14T05:13:38;6.65;;;0.73;;
37409;SDS011;23275;48.914;12.566;2023-03-14T05:16:05;2.58;;;0.88;;
37409;SDS011;23275;48.914;12.566;2023-03-14T05:18:32;2.13;;;0.90;;
37409;SDS011;23275;48.914;12.566;2023-03-14T05:20:57;4.70;;;1.48;;
37409;SDS011;23275;48.914;12.566;2023-03-14T05:23:23;3.58;;;1.20;;
37409;SDS011;23275;48.914;12.566;2023-03-14T05:25:49;10.60;;;5.82;;
37409;SDS011;23275;48.914;12.566;2023-03-14T05:28:14;3.30;;;1.40;;
37409;SDS011;23275;48.914;12.566;2023-03-14T05:30:40;1.45;;;0.70;;
37409;SDS011;23275;48.914;12.566;2023-03-14T05:33:05;1.95;;;0.70;;
37409;SDS011;23275;48.914;12.566;2023-03-14T05:35:31;4.05;;;0.82;;
37409;SDS011;23275;48.914;12.566;2023-03-14T05:37:56;2.65;;;0.70;;
37409;SDS011;23275;48.914;12.566;2023-03-14T05:40:22;1.75;;;0.90;;
37409;SDS011;23275;48.914;12.566;2023-03-14T05:42:48;2.53;;;0.80;;
37409;SDS011;23275;48.914;12.566;2023-03-14T05:45:13;1.92;;;0.80;;
37409;SDS011;23275;48.914;12.566;2023-03-14T05:47:39;2.15;;;1.00;;
37409;SDS011;23275;48.914;12.566;2023-03-14T05:50:04;3.08;;;1.00;;
37409;SDS011;23275;48.914;12.566;2023-03-14T05:52:30;4.30;;;0.98;;
37409;SDS011;23275;48.914;12.566;2023-03-14T05:54:56;3.80;;;1.52;;
37409;SDS011;23275;48.914;12.566;2023-03-14T05:57:21;2.22;;;1.10;;
37409;SDS011;23275;48.914;12.566;2023-03-14T05:59:47;2.22;;;1.00;;
37409;SDS011;23275;48.914;12.566;2023-03-14T06:02:12;2.78;;;1.10;;
37409;SDS011;23275;48.914;12.566;2023-03-14T06:04:38;2.25;;;0.90;;
37409;SDS011;23275;48.914;12.566;2023-03-14T06:07:03;2.03;;;0.93;;
37409;SDS011;23275;48.914;12.566;2023-03-14T06:09:29;2.65;;;1.15;;
37409;SDS011;23275;48.914;12.566;2023-03-14T06:11:54;2.67;;;1.20;;
37409;SDS011;23275;48.914;12.566;2023-03-14T06:14:20;2.20;;;1.00;;
37409;SDS011;23275;48.914;12.566;2023-03-14T06:16:46;2.20;;;1.05;;
37409;SDS011;23275;48.914;12.566;2023-03-14T06:19:13;1.85;;;0.60;;
37409;SDS011;23275;48.914;12.566;2023-03-14T06:21:39;2.25;;;0.98;;
37409;SDS011;23275;48.914;12.566;2023-03-14T06:24:05;2.15;;;0.77;;
37409;SDS011;23275;48.914;12.566;2023-03-14T06:26:31;1.45;;;0.50;;
37409;SDS011;23275;48.914;12.566;2023-03-14T06:28:56;1.40;;;0.22;;
37409;SDS011;23275;48.914;12.566;2023-03-14T06:31:24;0.88;;;0.30;;
37409;SDS011;23275;48.914;12.566;2023-03-14T06:33:49;2.53;;;0.43;;
37409;SDS011;23275;48.914;12.566;2023-03-14T06:36:15;2.83;;;0.40;;
37409;SDS011;23275;48.914;12.566;2023-03-14T06:38:40;1.58;;;0.40;;
37409;SDS011;23275;48.914;12.566;2023-03-14T06:41:06;1.33;;;0.40;;
37409;SDS011;23275;48.914;12.566;2023-03-14T06:43:32;0.88;;;0.40;;
37409;SDS011;23275;48.914;12.566;2023-03-14T06:45:58;1.85;;;0.43;;
37409;SDS011;23275;48.914;12.566;2023-03-14T06:48:24;0.88;;;0.35;;
37409;SDS011;23275;48.914;12.566;2023-03-14T06:50:50;1.65;;;0.43;;
37409;SDS011;23275;48.914;12.566;2023-03-14T06:53:15;0.50;;;0.28;;
37409;SDS011;23275;48.914;12.566;2023-03-14T06:55:41;1.58;;;0.35;;
37409;SDS011;23275;48.914;12.566;2023-03-14T06:58:08;1.38;;;0.30;;
37409;SDS011;23275;48.914;12.566;2023-03-14T07:00:34;1.35;;;0.40;;
37409;SDS011;23275;48.914;12.566;2023-03-14T07:02:59;0.40;;;0.20;;
37409;SDS011;23275;48.914;12.566;2023-03-14T07:05:25;0.35;;;0.30;;
37409;SDS011;23275;48.914;12.566;2023-03-14T07:07:51;0.55;;;0.22;;
37409;SDS011;23275;48.914;12.566;2023-03-14T07:10:16;1.35;;;0.50;;
37409;SDS011;23275;48.914;12.566;2023-03-14T07:12:42;1.27;;;0.47;;
37409;SDS011;23275;48.914;12.566;2023-03-14T07:15:08;0.38;;;0.20;;
37409;SDS011;23275;48.914;12.566;2023-03-14T07:17:34;1.00;;;0.20;;
37409;SDS011;23275;48.914;12.566;2023-03-14T07:19:59;2.20;;;0.32;;
37409;SDS011;23275;48.914;12.566;2023-03-14T07:22:25;1.08;;;0.45;;
37409;SDS011;23275;48.914;12.566;2023-03-14T07:24:51;0.32;;;0.20;;
37409;SDS011;23275;48.914;12.566;2023-03-14T07:27:17;0.40;;;0.20;;
37409;SDS011;23275;48.914;12.566;2023-03-14T07:29:42;0.88;;;0.30;;
37409;SDS011;23275;48.914;12.566;2023-03-14T07:32:08;0.40;;;0.10;;
37409;SDS011;23275;48.914;12.566;2023-03-14T07:34:34;0.30;;;0.25;;
37409;SDS011;23275;48.914;12.566;2023-03-14T07:37:00;0.68;;;0.30;;
37409;SDS011;23275;48.914;12.566;2023-03-14T07:39:25;3.17;;;0.45;;
37409;SDS011;23275;48.914;12.566;2023-03-14T07:41:51;1.60;;;0.50;;
37409;SDS011;23275;48.914;12.566;2023-03-14T07:44:16;1.00;;;0.30;;
37409;SDS011;23275;48.914;12.566;2023-03-14T07:46:42;0.47;;;0.22;;
37409;SDS011;23275;48.914;12.566;2023-03-14T07:49:07;2.30;;;0.60;;
37409;SDS011;23275;48.914;12.566;2023-03-14T07:51:33;2.08;;;0.60;;
37409;SDS011;23275;48.914;12.566;2023-03-14T07:53:58;2.70;;;0.73;;
37409;SDS011;23275;48.914;12.566;2023-03-14T07:56:24;1.95;;;0.43;;
37409;SDS011;23275;48.914;12.566;2023-03-14T07:58:49;1.80;;;0.50;;
37409;SDS011;23275;48.914;12.566;2023-03-14T08:01:15;0.50;;;0.20;;
37409;SDS011;23275;48.914;12.566;2023-03-14T08:03:40;1.23;;;0.30;;
37409;SDS011;23275;48.914;12.566;2023-03-14T08:06:06;0.43;;;0.20;;
37409;SDS011;23275;48.914;12.566;2023-03-14T08:08:32;0.98;;;0.20;;
37409;SDS011;23275;48.914;12.566;2023-03-14T08:11:04;0.93;;;0.20;;
37409;SDS011;23275;48.914;12.566;2023-03-14T08:13:30;1.33;;;0.52;;
37409;SDS011;23275;48.914;12.566;2023-03-14T08:15:56;2.38;;;0.20;;
37409;SDS011;23275;48.914;12.566;2023-03-14T08:18:21;1.05;;;0.10;;
37409;SDS011;23275;48.914;12.566;2023-03-14T08:20:47;1.30;;;0.13;;
37409;SDS011;23275;48.914;12.566;2023-03-14T08:23:12;1.05;;;0.20;;
37409;SDS011;23275;48.914;12.566;2023-03-14T08:25:38;0.93;;;0.20;;
37409;SDS011;23275;48.914;12.566;2023-03-14T08:28:04;0.50;;;0.10;;
37409;SDS011;23275;48.914;12.566;2023-03-14T08:30:29;0.40;;;0.15;;
37409;SDS011;23275;48.914;12.566;2023-03-14T08:32:58;1.08;;;0.30;;
37409;SDS011;23275;48.914;12.566;2023-03-14T08:35:24;1.30;;;0.30;;
37409;SDS011;23275;48.914;12.566;2023-03-14T08:37:50;0.93;;;0.10;;
37409;SDS011;23275;48.914;12.566;2023-03-14T08:40:17;0.45;;;0.20;;
37409;SDS011;23275;48.914;12.566;2023-03-14T08:42:43;1.20;;;0.30;;
37409;SDS011;23275;48.914;12.566;2023-03-14T08:45:11;3.40;;;0.20;;
37409;SDS011;23275;48.914;12.566;2023-03-14T08:47:38;0.30;;;0.13;;
37409;SDS011;23275;48.914;12.566;2023-03-14T08:50:04;1.10;;;0.22;;
37409;SDS011;23275;48.914;12.566;2023-03-14T08:52:31;0.40;;;0.15;;
37409;SDS011;23275;48.914;12.566;2023-03-14T08:54:57;2.70;;;0.38;;
37409;SDS011;23275;48.914;12.566;2023-03-14T08:57:23;0.60;;;0.20;;
37409;SDS011;23275;48.914;12.566;2023-03-14T08:59:52;4.38;;;0.45;;
37409;SDS011;23275;48.914;12.566;2023-03-14T09:02:19;1.05;;;0.30;;
37409;SDS011;23275;48.914;12.566;2023-03-14T09:04:44;0.77;;;0.20;;
37409;SDS011;23275;48.914;12.566;2023-03-14T09:07:10;0.60;;;0.20;;
37409;SDS011;23275;48.914;12.566;2023-03-14T09:09:36;0.70;;;0.22;;
37409;SDS011;23275;48.914;12.566;2023-03-14T09:12:01;0.63;;;0.20;;
37409;SDS011;23275;48.914;12.566;2023-03-14T09:14:27;1.35;;;0.20;;
37409;SDS011;23275;48.914;12.566;2023-03-14T09:16:53;0.50;;;0.20;;
37409;SDS011;23275;48.914;12.566;2023-03-14T09:19:20;1.45;;;0.20;;
37409;SDS011;23275;48.914;12.566;2023-03-14T09:21:46;0.38;;;0.20;;
37409;SDS011;23275;48.914;12.566;2023-03-14T09:24:12;0.30;;;0.20;;
37409;SDS011;23275;48.914;12.566;2023-03-14T09:26:37;2.75;;;0.20;;
37409;SDS011;23275;48.914;12.566;2023-03-14T09:29:03;0.57;;;0.20;;
37409;SDS011;23275;48.914;12.566;2023-03-14T09:31:28;0.70;;;0.20;;
37409;SDS011;23275;48.914;12.566;2023-03-14T09:33:54;0.80;;;0.20;;
37409;SDS011;23275;48.914;12.566;2023-03-14T09:36:20;1.67;;;0.30;;
37409;SDS011;23275;48.914;12.566;2023-03-14T09:38:46;0.80;;;0.30;;
37409;SDS011;23275;48.914;12.566;2023-03-14T09:41:33;2.70;;;0.30;;
37409;SDS011;23275;48.914;12.566;2023-03-14T09:44:16;0.73;;;0.20;;
37409;SDS011;23275;48.914;12.566;2023-03-14T09:46:46;0.77;;;0.20;;
37409;SDS011;23275;48.914;12.566;2023-03-14T09:49:20;1.13;;;0.20;;
37409;SDS011;23275;48.914;12.566;2023-03-14T09:51:57;1.83;;;0.20;;
37409;SDS011;23275;48.914;12.566;2023-03-14T09:54:35;0.73;;;0.20;;
37409;SDS011;23275;48.914;12.566;2023-03-14T09:57:04;0.30;;;0.10;;
37409;SDS011;23275;48.914;12.566;2023-03-14T09:59:35;0.47;;;0.20;;
37409;SDS011;23275;48.914;12.566;2023-03-14T10:02:02;0.35;;;0.20;;
37409;SDS011;23275;48.914;12.566;2023-03-14T10:04:39;0.85;;;0.20;;
37409;SDS011;23275;48.914;12.566;2023-03-14T10:07:11;0.20;;;0.20;;
37409;SDS011;23275;48.914;12.566;2023-03-14T10:09:40;1.88;;;0.30;;
37409;SDS011;23275;48.914;12.566;2023-03-14T10:12:08;0.57;;;0.20;;
37409;SDS011;23275;48.914;12.566;2023-03-14T10:14:34;2.33;;;0.32;;
37409;SDS011;23275;48.914;12.566;2023-03-14T10:17:08;0.30;;;0.20;;
37409;SDS011;23275;48.914;12.566;2023-03-14T10:19:36;1.38;;;0.20;;
37409;SDS011;23275;48.914;12.566;2023-03-14T10:22:05;2.05;;;0.20;;
37409;SDS011;23275;48.914;12.566;2023-03-14T10:24:38;0.85;;;0.20;;
37409;SDS011;23275;48.914;12.566;2023-03-14T10:27:18;0.28;;;0.20;;
37409;SDS011;23275;48.914;12.566;2023-03-14T10:29:52;0.25;;;0.10;;
37409;SDS011;23275;48.914;12.566;2023-03-14T10:32:21;2.13;;;0.20;;
37409;SDS011;23275;48.914;12.566;2023-03-14T10:35:06;0.85;;;0.20;;
37409;SDS011;23275;48.914;12.566;2023-03-14T10:37:47;0.50;;;0.20;;
37409;SDS011;23275;48.914;12.566;2023-03-14T10:40:28;1.10;;;0.30;;
37409;SDS011;23275;48.914;12.566;2023-03-14T10:43:00;1.67;;;0.20;;
37409;SDS011;23275;48.914;12.566;2023-03-14T10:45:42;0.85;;;0.28;;
37409;SDS011;23275;48.914;12.566;2023-03-14T10:48:20;1.05;;;0.10;;
37409;SDS011;23275;48.914;12.566;2023-03-14T10:50:49;6.03;;;0.20;;
37409;SDS011;23275;48.914;12.566;2023-03-14T10:53:19;0.80;;;0.20;;
37409;SDS011;23275;48.914;12.566;2023-03-14T10:55:45;0.90;;;0.20;;
37409;SDS011;23275;48.914;12.566;2023-03-14T10:58:18;0.65;;;0.20;;
37409;SDS011;23275;48.914;12.566;2023-03-14T11:00:44;0.60;;;0.10;;
37409;SDS011;23275;48.914;12.566;2023-03-14T11:03:15;0.45;;;0.22;;
37409;SDS011;23275;48.914;12.566;2023-03-14T11:08:29;1.52;;;0.10;;
37409;SDS011;23275;48.914;12.566;2023-03-14T11:11:07;0.77;;;0.20;;
37409;SDS011;23275;48.914;12.566;2023-03-14T11:14:06;1.38;;;0.20;;
37409;SDS011;23275;48.914;12.566;2023-03-14T11:19:53;0.55;;;0.20;;
37409;SDS011;23275;48.914;12.566;2023-03-14T11:23:07;0.55;;;0.15;;
37409;SDS011;23275;48.914;12.566;2023-03-14T11:25:29;0.73;;;0.30;;
37409;SDS011;23275;48.914;12.566;2023-03-14T11:28:17;0.90;;;0.22;;
37409;SDS011;23275;48.914;12.566;2023-03-14T11:30:53;0.30;;;0.20;;
37409;SDS011;23275;48.914;12.566;2023-03-14T11:33:24;0.98;;;0.20;;
37409;SDS011;23275;48.914;12.566;2023-03-14T11:36:12;1.35;;;0.20;;
37409;SDS011;23275;48.914;12.566;2023-03-14T11:38:46;0.22;;;0.10;;
37409;SDS011;23275;48.914;12.566;2023-03-14T11:41:15;0.45;;;0.20;;
37409;SDS011;23275;48.914;12.566;2023-03-14T11:43:49;1.15;;;0.20;;
37409;SDS011;23275;48.914;12.566;2023-03-14T11:46:23;0.65;;;0.20;;
37409;SDS011;23275;48.914;12.566;2023-03-14T11:51:58;0.20;;;0.20;;
37409;SDS011;23275;48.914;12.566;2023-03-14T11:54:32;0.22;;;0.10;;
37409;SDS011;23275;48.914;12.566;2023-03-14T11:57:14;0.50;;;0.20;;
37409;SDS011;23275;48.914;12.566;2023-03-14T12:11:18;0.70;;;0.20;;
37409;SDS011;23275;48.914;12.566;2023-03-14T12:13:48;3.55;;;0.38;;
37409;SDS011;23275;48.914;12.566;2023-03-14T12:16:24;0.20;;;0.20;;
37409;SDS011;23275;48.914;12.566;2023-03-14T12:18:51;1.20;;;0.20;;
37409;SDS011;23275;48.914;12.566;2023-03-14T12:21:17;0.57;;;0.20;;
37409;SDS011;23275;48.914;12.566;2023-03-14T12:26:18;1.95;;;0.20;;
37409;SDS011;23275;48.914;12.566;2023-03-14T12:28:52;1.17;;;0.20;;
37409;SDS011;23275;48.914;12.566;2023-03-14T12:31:41;3.20;;;0.20;;
37409;SDS011;23275;48.914;12.566;2023-03-14T12:39:20;1.00;;;0.22;;
37409;SDS011;23275;48.914;12.566;2023-03-14T12:42:12;0.47;;;0.20;;
37409;SDS011;23275;48.914;12.566;2023-03-14T12:48:00;1.02;;;0.30;;
37409;SDS011;23275;48.914;12.566;2023-03-14T12:50:42;0.82;;;0.25;;
37409;SDS011;23275;48.914;12.566;2023-03-14T12:53:21;1.48;;;0.30;;
37409;SDS011;23275;48.914;12.566;2023-03-14T12:59:05;0.73;;;0.20;;
37409;SDS011;23275;48.914;12.566;2023-03-14T13:01:56;0.90;;;0.20;;
37409;SDS011;23275;48.914;12.566;2023-03-14T13:04:34;0.47;;;0.30;;
37409;SDS011;23275;48.914;12.566;2023-03-14T13:15:33;0.65;;;0.30;;
37409;SDS011;23275;48.914;12.566;2023-03-14T13:18:01;0.67;;;0.30;;
37409;SDS011;23275;48.914;12.566;2023-03-14T13:20:35;1.48;;;0.40;;
37409;SDS011;23275;48.914;12.566;2023-03-14T13:23:03;1.70;;;0.30;;
37409;SDS011;23275;48.914;12.566;2023-03-14T13:25:30;0.70;;;0.20;;
37409;SDS011;23275;48.914;12.566;2023-03-14T13:27:58;1.67;;;0.20;;
37409;SDS011;23275;48.914;12.566;2023-03-14T13:30:29;0.98;;;0.30;;
37409;SDS011;23275;48.914;12.566;2023-03-14T13:33:04;1.30;;;0.30;;
37409;SDS011;23275;48.914;12.566;2023-03-14T13:35:37;1.42;;;0.40;;
37409;SDS011;23275;48.914;12.566;2023-03-14T13:38:13;0.73;;;0.30;;
37409;SDS011;23275;48.914;12.566;2023-03-14T13:40:42;0.90;;;0.40;;
37409;SDS011;23275;48.914;12.566;2023-03-14T13:43:16;3.22;;;0.57;;
37409;SDS011;23275;48.914;12.566;2023-03-14T13:45:50;1.85;;;0.68;;
37409;SDS011;23275;48.914;12.566;2023-03-14T13:48:21;1.02;;;0.40;;
37409;SDS011;23275;48.914;12.566;2023-03-14T13:53:19;0.82;;;0.43;;
37409;SDS011;23275;48.914;12.566;2023-03-14T13:55:44;1.02;;;0.35;;
37409;SDS011;23275;48.914;12.566;2023-03-14T13:58:19;1.02;;;0.30;;
37409;SDS011;23275;48.914;12.566;2023-03-14T14:03:37;1.73;;;0.50;;
37409;SDS011;23275;48.914;12.566;2023-03-14T14:06:06;0.98;;;0.40;;
37409;SDS011;23275;48.914;12.566;2023-03-14T14:08:41;1.77;;;0.60;;
37409;SDS011;23275;48.914;12.566;2023-03-14T14:11:07;1.27;;;0.43;;
37409;SDS011;23275;48.914;12.566;2023-03-14T14:13:38;0.75;;;0.35;;
37409;SDS011;23275;48.914;12.566;2023-03-14T14:16:03;1.65;;;0.50;;
37409;SDS011;23275;48.914;12.566;2023-03-14T14:18:30;1.90;;;0.45;;
37409;SDS011;23275;48.914;12.566;2023-03-14T14:20:57;1.00;;;0.40;;
37409;SDS011;23275;48.914;12.566;2023-03-14T14:23:24;1.48;;;0.47;;
37409;SDS011;23275;48.914;12.566;2023-03-14T14:25:53;2.13;;;0.50;;
37409;SDS011;23275;48.914;12.566;2023-03-14T14:33:43;0.65;;;0.30;;
37409;SDS011;23275;48.914;12.566;2023-03-14T14:38:52;0.82;;;0.32;;
37409;SDS011;23275;48.914;12.566;2023-03-14T14:41:41;1.00;;;0.35;;
37409;SDS011;23275;48.914;12.566;2023-03-14T14:44:10;2.30;;;0.30;;
37409;SDS011;23275;48.914;12.566;2023-03-14T14:46:37;3.13;;;0.40;;
37409;SDS011;23275;48.914;12.566;2023-03-14T14:49:10;1.30;;;0.50;;
37409;SDS011;23275;48.914;12.566;2023-03-14T14:51:43;3.17;;;0.80;;
37409;SDS011;23275;48.914;12.566;2023-03-14T14:54:14;3.22;;;0.93;;
37409;SDS011;23275;48.914;12.566;2023-03-14T14:56:51;0.63;;;0.20;;
37409;SDS011;23275;48.914;12.566;2023-03-14T14:59:41;0.85;;;0.28;;
37409;SDS011;23275;48.914;12.566;2023-03-14T15:02:14;1.25;;;0.32;;
37409;SDS011;23275;48.914;12.566;2023-03-14T15:05:04;4.57;;;0.40;;
37409;SDS011;23275;48.914;12.566;2023-03-14T15:07:31;0.38;;;0.17;;
37409;SDS011;23275;48.914;12.566;2023-03-14T15:09:57;0.75;;;0.30;;
37409;SDS011;23275;48.914;12.566;2023-03-14T15:12:22;2.97;;;1.38;;
37409;SDS011;23275;48.914;12.566;2023-03-14T15:14:49;0.70;;;0.20;;
37409;SDS011;23275;48.914;12.566;2023-03-14T15:17:15;2.97;;;0.50;;
37409;SDS011;23275;48.914;12.566;2023-03-14T15:19:40;0.90;;;0.40;;
37409;SDS011;23275;48.914;12.566;2023-03-14T15:22:11;4.00;;;0.52;;
37409;SDS011;23275;48.914;12.566;2023-03-14T15:24:39;4.20;;;1.27;;
37409;SDS011;23275;48.914;12.566;2023-03-14T15:27:08;1.25;;;0.40;;
37409;SDS011;23275;48.914;12.566;2023-03-14T15:29:40;3.58;;;1.67;;
37409;SDS011;23275;48.914;12.566;2023-03-14T15:32:09;2.00;;;0.80;;
37409;SDS011;23275;48.914;12.566;2023-03-14T15:34:36;2.60;;;1.17;;
37409;SDS011;23275;48.914;12.566;2023-03-14T15:37:02;3.22;;;1.30;;
37409;SDS011;23275;48.914;12.566;2023-03-14T15:39:32;4.57;;;1.77;;
37409;SDS011;23275;48.914;12.566;2023-03-14T15:41:59;2.75;;;1.33;;
37409;SDS011;23275;48.914;12.566;2023-03-14T15:44:24;4.28;;;2.35;;
37409;SDS011;23275;48.914;12.566;2023-03-14T15:46:50;2.33;;;1.23;;